Pagrindinis puslapis
METAR-TAF:

METAR-TAF

Oro uostai :

Kachamarka, Peru

platuma: 07-08S, ilguma: 078-28W, Aukštis: 2620 m

Dabartinis oras

Ataskaita buvo paskelbta 4 valandos ir 34 minutes, ne 23:00 UTC
Vėjas 4 kt iš Pietryčių
Temperatūra 14°C
Drėgmė 82%
Slėgis 1028 hPa
Matomumas 10 km arba daugiau
Išsisklaidę debesys ne aukštis 1700 ft
Apsiniaukę ne aukštis 4300 ft
lietus

METAR: SPJR 212300Z 14004KT 9999 RA SCT017 OVC043 14/11 Q1028 RMK RAB35 PP008

Laikas: 22:34 (03:34 UTC)

Prognozė

Ataskaita buvo paskelbta 10 valandos ir 34 minutes, ne 17:00 UTC
Prognozė galioja nuo 21 metu 18 UTC su 22 metu 18 UTC
Vėjas 6 kt iš Pietų/Pietryčių
Matomumas 10 km arba daugiau
Išsisklaidę debesys ne aukštis 2000 ft
Su prošvaistėmis ne aukštis 4300 ft
Laikinai
nuo 21 metu 18 UTC su 21 metu 22 UTC
Matomumas: 7000 m
Išsisklaidę debesys ne aukštis 1500 ft
Apsiniaukę ne aukštis 4000 ft
lietus

TAF: SPJR 211700Z 2118/2218 15006KT 9999 SCT020 BKN043 TX20/2119Z TN10/2211Z TEMPO 2118/2122 7000 -RA SCT015 OVC040

Orai ataskaitas ir orų prognozės (METAR, TAF).

turimą stotys yra geltonos ir raudonos taškus žemėlapyje.

Perkelti pele per norėdami pamatyti stoties vardą.

Tada spustelėkite, norėdami matyti oro stebėjimo ir prognozės.

Norėdami pakeisti žemėlapį: spustelėkite ant žalios mygtukų su juodo kryžiaus žemyn,; žalią mygtuką su brūkšneliu, jei norite nutolinti; arba žalių rodyklių gretimoms žemėlapius.


METAR-TAF: